sensor_id;sensor_type;location;lat;lon;timestamp;P1;durP1;ratioP1;P2;durP2;ratioP2
38220;SDS011;24023;51.280;7.148;2023-05-16T00:00:10;6.3;;;5.7;;
38220;SDS011;24023;51.280;7.148;2023-05-16T00:05:07;5.0;;;4.6;;
38220;SDS011;24023;51.280;7.148;2023-05-16T00:10:08;5.0;;;4.6;;
38220;SDS011;24023;51.280;7.148;2023-05-16T00:15:09;5.2;;;4.7;;
38220;SDS011;24023;51.280;7.148;2023-05-16T00:20:11;5.2;;;4.7;;
38220;SDS011;24023;51.280;7.148;2023-05-16T00:25:07;5.2;;;4.7;;
38220;SDS011;24023;51.280;7.148;2023-05-16T00:30:09;5.0;;;4.5;;
38220;SDS011;24023;51.280;7.148;2023-05-16T00:35:09;5.0;;;4.5;;
38220;SDS011;24023;51.280;7.148;2023-05-16T00:40:08;7.6;;;7.0;;
38220;SDS011;24023;51.280;7.148;2023-05-16T00:45:10;7.6;;;7.0;;
38220;SDS011;24023;51.280;7.148;2023-05-16T00:50:08;6.2;;;5.7;;
38220;SDS011;24023;51.280;7.148;2023-05-16T00:55:06;6.2;;;5.7;;
38220;SDS011;24023;51.280;7.148;2023-05-16T01:00:11;4.2;;;3.8;;
38220;SDS011;24023;51.280;7.148;2023-05-16T01:05:07;4.2;;;3.8;;
38220;SDS011;24023;51.280;7.148;2023-05-16T01:10:08;3.6;;;3.3;;
38220;SDS011;24023;51.280;7.148;2023-05-16T01:15:07;3.6;;;3.3;;
38220;SDS011;24023;51.280;7.148;2023-05-16T01:20:12;3.6;;;3.3;;
38220;SDS011;24023;51.280;7.148;2023-05-16T01:25:11;3.3;;;3.0;;
38220;SDS011;24023;51.280;7.148;2023-05-16T01:30:12;3.3;;;3.0;;
38220;SDS011;24023;51.280;7.148;2023-05-16T01:35:06;3.9;;;2.2;;
38220;SDS011;24023;51.280;7.148;2023-05-16T01:40:08;2.0;;;1.8;;
38220;SDS011;24023;51.280;7.148;2023-05-16T01:45:11;2.0;;;1.8;;
38220;SDS011;24023;51.280;7.148;2023-05-16T01:50:09;1.8;;;1.1;;
38220;SDS011;24023;51.280;7.148;2023-05-16T01:55:06;1.8;;;1.1;;
38220;SDS011;24023;51.280;7.148;2023-05-16T02:00:10;1.8;;;1.1;;
38220;SDS011;24023;51.280;7.148;2023-05-16T02:05:07;1.4;;;1.2;;
38220;SDS011;24023;51.280;7.148;2023-05-16T02:10:08;1.4;;;1.2;;
38220;SDS011;24023;51.280;7.148;2023-05-16T02:15:08;2.8;;;1.6;;
38220;SDS011;24023;51.280;7.148;2023-05-16T02:20:09;2.8;;;1.6;;
38220;SDS011;24023;51.280;7.148;2023-05-16T02:25:07;2.8;;;1.6;;
38220;SDS011;24023;51.280;7.148;2023-05-16T02:30:09;2.4;;;1.2;;
38220;SDS011;24023;51.280;7.148;2023-05-16T02:35:07;2.4;;;1.2;;
38220;SDS011;24023;51.280;7.148;2023-05-16T02:40:08;4.1;;;1.5;;
38220;SDS011;24023;51.280;7.148;2023-05-16T02:45:10;4.1;;;1.5;;
38220;SDS011;24023;51.280;7.148;2023-05-16T02:50:08;5.3;;;1.4;;
38220;SDS011;24023;51.280;7.148;2023-05-16T02:55:07;5.3;;;1.4;;
38220;SDS011;24023;51.280;7.148;2023-05-16T03:00:11;5.3;;;1.4;;
38220;SDS011;24023;51.280;7.148;2023-05-16T03:05:09;6.3;;;1.5;;
38220;SDS011;24023;51.280;7.148;2023-05-16T03:10:07;6.3;;;1.5;;
38220;SDS011;24023;51.280;7.148;2023-05-16T03:15:08;6.3;;;1.6;;
38220;SDS011;24023;51.280;7.148;2023-05-16T03:20:08;6.3;;;1.6;;
38220;SDS011;24023;51.280;7.148;2023-05-16T03:25:07;6.3;;;1.6;;
38220;SDS011;24023;51.280;7.148;2023-05-16T03:30:09;6.4;;;1.7;;
38220;SDS011;24023;51.280;7.148;2023-05-16T03:35:06;6.4;;;1.7;;
38220;SDS011;24023;51.280;7.148;2023-05-16T03:40:08;6.7;;;2.4;;
38220;SDS011;24023;51.280;7.148;2023-05-16T03:45:10;6.7;;;2.4;;
38220;SDS011;24023;51.280;7.148;2023-05-16T03:50:07;9.6;;;3.4;;
38220;SDS011;24023;51.280;7.148;2023-05-16T03:55:06;9.6;;;3.4;;
38220;SDS011;24023;51.280;7.148;2023-05-16T04:00:11;10.7;;;3.4;;
38220;SDS011;24023;51.280;7.148;2023-05-16T04:05:07;10.7;;;3.4;;
38220;SDS011;24023;51.280;7.148;2023-05-16T04:10:07;10.7;;;3.4;;
38220;SDS011;24023;51.280;7.148;2023-05-16T04:15:08;10.1;;;2.4;;
38220;SDS011;24023;51.280;7.148;2023-05-16T04:20:08;7.9;;;1.9;;
38220;SDS011;24023;51.280;7.148;2023-05-16T04:25:08;7.9;;;1.9;;
38220;SDS011;24023;51.280;7.148;2023-05-16T04:30:10;8.7;;;1.8;;
38220;SDS011;24023;51.280;7.148;2023-05-16T04:35:08;8.7;;;1.8;;
38220;SDS011;24023;51.280;7.148;2023-05-16T04:40:09;8.7;;;1.8;;
38220;SDS011;24023;51.280;7.148;2023-05-16T04:45:10;9.2;;;2.1;;
38220;SDS011;24023;51.280;7.148;2023-05-16T04:50:08;9.2;;;2.1;;
38220;SDS011;24023;51.280;7.148;2023-05-16T04:55:06;8.2;;;2.0;;
38220;SDS011;24023;51.280;7.148;2023-05-16T05:00:11;8.2;;;2.0;;
38220;SDS011;24023;51.280;7.148;2023-05-16T05:05:07;8.2;;;2.0;;
38220;SDS011;24023;51.280;7.148;2023-05-16T05:10:08;9.6;;;2.2;;
38220;SDS011;24023;51.280;7.148;2023-05-16T05:15:08;9.6;;;2.2;;
38220;SDS011;24023;51.280;7.148;2023-05-16T05:20:10;9.7;;;2.3;;
38220;SDS011;24023;51.280;7.148;2023-05-16T05:25:07;9.7;;;2.3;;
38220;SDS011;24023;51.280;7.148;2023-05-16T05:30:09;9.7;;;2.3;;
38220;SDS011;24023;51.280;7.148;2023-05-16T05:35:06;8.9;;;2.3;;
38220;SDS011;24023;51.280;7.148;2023-05-16T05:40:08;8.9;;;2.3;;
38220;SDS011;24023;51.280;7.148;2023-05-16T05:45:09;7.9;;;2.1;;
38220;SDS011;24023;51.280;7.148;2023-05-16T05:50:08;7.9;;;2.1;;
38220;SDS011;24023;51.280;7.148;2023-05-16T05:55:06;8.9;;;2.2;;
38220;SDS011;24023;51.280;7.148;2023-05-16T06:00:11;8.9;;;2.2;;
38220;SDS011;24023;51.280;7.148;2023-05-16T06:05:07;8.9;;;2.2;;
38220;SDS011;24023;51.280;7.148;2023-05-16T06:10:08;8.2;;;2.0;;
38220;SDS011;24023;51.280;7.148;2023-05-16T06:15:08;8.2;;;2.0;;
38220;SDS011;24023;51.280;7.148;2023-05-16T06:20:08;9.4;;;2.2;;
38220;SDS011;24023;51.280;7.148;2023-05-16T06:25:06;9.4;;;2.2;;
38220;SDS011;24023;51.280;7.148;2023-05-16T06:30:09;7.2;;;1.7;;
38220;SDS011;24023;51.280;7.148;2023-05-16T06:35:06;7.2;;;1.7;;
38220;SDS011;24023;51.280;7.148;2023-05-16T06:40:07;8.3;;;1.7;;
38220;SDS011;24023;51.280;7.148;2023-05-16T06:45:10;8.3;;;1.7;;
38220;SDS011;24023;51.280;7.148;2023-05-16T06:50:10;8.3;;;1.7;;
38220;SDS011;24023;51.280;7.148;2023-05-16T06:55:07;9.1;;;1.8;;
38220;SDS011;24023;51.280;7.148;2023-05-16T07:00:10;6.7;;;1.6;;
38220;SDS011;24023;51.280;7.148;2023-05-16T07:05:07;6.7;;;1.6;;
38220;SDS011;24023;51.280;7.148;2023-05-16T07:10:08;6.1;;;1.6;;
38220;SDS011;24023;51.280;7.148;2023-05-16T07:15:08;6.1;;;1.6;;
38220;SDS011;24023;51.280;7.148;2023-05-16T07:20:10;6.3;;;1.3;;
38220;SDS011;24023;51.280;7.148;2023-05-16T07:25:11;6.3;;;1.3;;
38220;SDS011;24023;51.280;7.148;2023-05-16T07:30:10;6.3;;;1.3;;
38220;SDS011;24023;51.280;7.148;2023-05-16T07:35:07;6.3;;;1.3;;
38220;SDS011;24023;51.280;7.148;2023-05-16T07:40:08;6.5;;;1.5;;
38220;SDS011;24023;51.280;7.148;2023-05-16T07:45:09;6.5;;;1.5;;
38220;SDS011;24023;51.280;7.148;2023-05-16T07:50:09;5.8;;;1.4;;
38220;SDS011;24023;51.280;7.148;2023-05-16T07:55:06;5.8;;;1.4;;
38220;SDS011;24023;51.280;7.148;2023-05-16T08:00:10;5.3;;;1.1;;
38220;SDS011;24023;51.280;7.148;2023-05-16T08:05:06;5.3;;;1.1;;
38220;SDS011;24023;51.280;7.148;2023-05-16T08:10:08;4.0;;;0.9;;
38220;SDS011;24023;51.280;7.148;2023-05-16T08:15:08;4.0;;;0.9;;
38220;SDS011;24023;51.280;7.148;2023-05-16T08:20:08;5.4;;;1.2;;
38220;SDS011;24023;51.280;7.148;2023-05-16T08:25:06;5.4;;;1.2;;
38220;SDS011;24023;51.280;7.148;2023-05-16T08:30:11;4.1;;;0.8;;
38220;SDS011;24023;51.280;7.148;2023-05-16T08:35:07;4.1;;;0.8;;
38220;SDS011;24023;51.280;7.148;2023-05-16T08:40:08;4.5;;;0.8;;
38220;SDS011;24023;51.280;7.148;2023-05-16T08:45:11;4.5;;;0.8;;
38220;SDS011;24023;51.280;7.148;2023-05-16T08:50:08;4.4;;;1.1;;
38220;SDS011;24023;51.280;7.148;2023-05-16T08:55:09;4.4;;;1.1;;
38220;SDS011;24023;51.280;7.148;2023-05-16T09:00:11;4.4;;;0.8;;
38220;SDS011;24023;51.280;7.148;2023-05-16T09:10:07;4.1;;;0.9;;
38220;SDS011;24023;51.280;7.148;2023-05-16T09:15:09;4.1;;;0.9;;
38220;SDS011;24023;51.280;7.148;2023-05-16T09:20:08;4.2;;;0.7;;
38220;SDS011;24023;51.280;7.148;2023-05-16T09:25:06;4.2;;;0.7;;
38220;SDS011;24023;51.280;7.148;2023-05-16T09:30:09;5.1;;;0.8;;
38220;SDS011;24023;51.280;7.148;2023-05-16T09:35:07;5.1;;;0.8;;
38220;SDS011;24023;51.280;7.148;2023-05-16T09:40:08;3.9;;;0.8;;
38220;SDS011;24023;51.280;7.148;2023-05-16T09:45:10;3.9;;;0.8;;
38220;SDS011;24023;51.280;7.148;2023-05-16T09:50:08;3.9;;;0.8;;
38220;SDS011;24023;51.280;7.148;2023-05-16T09:55:07;4.3;;;0.9;;
38220;SDS011;24023;51.280;7.148;2023-05-16T10:00:11;4.1;;;0.7;;
38220;SDS011;24023;51.280;7.148;2023-05-16T10:05:07;4.1;;;0.7;;
38220;SDS011;24023;51.280;7.148;2023-05-16T10:10:08;3.1;;;0.9;;
38220;SDS011;24023;51.280;7.148;2023-05-16T10:15:14;3.1;;;0.9;;
38220;SDS011;24023;51.280;7.148;2023-05-16T10:20:08;5.2;;;0.8;;
38220;SDS011;24023;51.280;7.148;2023-05-16T10:25:07;5.2;;;0.8;;
38220;SDS011;24023;51.280;7.148;2023-05-16T10:30:10;2.6;;;0.7;;
38220;SDS011;24023;51.280;7.148;2023-05-16T10:35:07;2.6;;;0.7;;
38220;SDS011;24023;51.280;7.148;2023-05-16T10:40:09;3.6;;;0.6;;
38220;SDS011;24023;51.280;7.148;2023-05-16T10:45:18;3.6;;;0.6;;
38220;SDS011;24023;51.280;7.148;2023-05-16T10:50:08;2.4;;;0.7;;
38220;SDS011;24023;51.280;7.148;2023-05-16T10:55:07;2.4;;;0.7;;
38220;SDS011;24023;51.280;7.148;2023-05-16T11:00:11;4.7;;;0.9;;
38220;SDS011;24023;51.280;7.148;2023-05-16T11:05:06;4.7;;;0.9;;
38220;SDS011;24023;51.280;7.148;2023-05-16T11:10:08;4.8;;;0.7;;
38220;SDS011;24023;51.280;7.148;2023-05-16T11:15:17;4.8;;;0.7;;
38220;SDS011;24023;51.280;7.148;2023-05-16T11:20:23;2.8;;;0.6;;
38220;SDS011;24023;51.280;7.148;2023-05-16T11:25:08;2.8;;;0.6;;
38220;SDS011;24023;51.280;7.148;2023-05-16T11:30:11;7.4;;;0.9;;
38220;SDS011;24023;51.280;7.148;2023-05-16T11:35:08;7.4;;;0.9;;
38220;SDS011;24023;51.280;7.148;2023-05-16T11:40:09;2.9;;;0.6;;
38220;SDS011;24023;51.280;7.148;2023-05-16T11:45:10;2.9;;;0.6;;
38220;SDS011;24023;51.280;7.148;2023-05-16T11:50:10;2.7;;;0.7;;
38220;SDS011;24023;51.280;7.148;2023-05-16T11:55:07;2.7;;;0.7;;
38220;SDS011;24023;51.280;7.148;2023-05-16T12:00:13;3.3;;;0.6;;
38220;SDS011;24023;51.280;7.148;2023-05-16T12:05:08;3.3;;;0.6;;
38220;SDS011;24023;51.280;7.148;2023-05-16T12:10:09;2.7;;;0.7;;
38220;SDS011;24023;51.280;7.148;2023-05-16T12:15:08;2.7;;;0.7;;
38220;SDS011;24023;51.280;7.148;2023-05-16T12:20:10;2.7;;;0.6;;
38220;SDS011;24023;51.280;7.148;2023-05-16T12:25:24;2.7;;;0.6;;
38220;SDS011;24023;51.280;7.148;2023-05-16T12:30:10;3.3;;;0.7;;
38220;SDS011;24023;51.280;7.148;2023-05-16T12:35:07;3.3;;;0.7;;
38220;SDS011;24023;51.280;7.148;2023-05-16T12:40:08;1.3;;;0.4;;
38220;SDS011;24023;51.280;7.148;2023-05-16T12:45:14;1.3;;;0.4;;
38220;SDS011;24023;51.280;7.148;2023-05-16T12:50:08;2.0;;;0.5;;
38220;SDS011;24023;51.280;7.148;2023-05-16T12:55:06;2.0;;;0.5;;
38220;SDS011;24023;51.280;7.148;2023-05-16T13:00:11;2.0;;;0.4;;
38220;SDS011;24023;51.280;7.148;2023-05-16T13:05:07;2.0;;;0.4;;
38220;SDS011;24023;51.280;7.148;2023-05-16T13:10:10;2.1;;;0.5;;
38220;SDS011;24023;51.280;7.148;2023-05-16T13:15:08;2.1;;;0.5;;
38220;SDS011;24023;51.280;7.148;2023-05-16T13:20:08;1.5;;;0.5;;
38220;SDS011;24023;51.280;7.148;2023-05-16T13:25:07;1.5;;;0.5;;
38220;SDS011;24023;51.280;7.148;2023-05-16T13:30:09;1.9;;;0.6;;
38220;SDS011;24023;51.280;7.148;2023-05-16T13:35:06;1.9;;;0.6;;
38220;SDS011;24023;51.280;7.148;2023-05-16T13:40:09;2.2;;;0.6;;
38220;SDS011;24023;51.280;7.148;2023-05-16T13:45:09;2.2;;;0.6;;
38220;SDS011;24023;51.280;7.148;2023-05-16T13:50:09;2.8;;;0.5;;
38220;SDS011;24023;51.280;7.148;2023-05-16T13:55:07;2.8;;;0.5;;
38220;SDS011;24023;51.280;7.148;2023-05-16T14:00:12;2.5;;;0.5;;
38220;SDS011;24023;51.280;7.148;2023-05-16T14:05:06;2.5;;;0.5;;
38220;SDS011;24023;51.280;7.148;2023-05-16T14:10:08;2.5;;;0.5;;
38220;SDS011;24023;51.280;7.148;2023-05-16T14:15:08;2.4;;;0.5;;
38220;SDS011;24023;51.280;7.148;2023-05-16T14:20:09;2.4;;;0.5;;
38220;SDS011;24023;51.280;7.148;2023-05-16T14:25:07;2.4;;;0.5;;
38220;SDS011;24023;51.280;7.148;2023-05-16T14:30:09;2.9;;;0.6;;
38220;SDS011;24023;51.280;7.148;2023-05-16T14:35:07;2.9;;;0.6;;
38220;SDS011;24023;51.280;7.148;2023-05-16T14:40:08;3.0;;;0.8;;
38220;SDS011;24023;51.280;7.148;2023-05-16T14:45:10;3.0;;;0.8;;
38220;SDS011;24023;51.280;7.148;2023-05-16T14:50:07;2.4;;;0.5;;
38220;SDS011;24023;51.280;7.148;2023-05-16T14:55:07;2.4;;;0.5;;
38220;SDS011;24023;51.280;7.148;2023-05-16T15:00:11;2.4;;;0.6;;
38220;SDS011;24023;51.280;7.148;2023-05-16T15:05:06;2.4;;;0.6;;
38220;SDS011;24023;51.280;7.148;2023-05-16T15:10:08;3.4;;;0.8;;
38220;SDS011;24023;51.280;7.148;2023-05-16T15:15:10;3.4;;;0.8;;
38220;SDS011;24023;51.280;7.148;2023-05-16T15:20:09;3.4;;;0.8;;
38220;SDS011;24023;51.280;7.148;2023-05-16T15:25:07;3.5;;;0.8;;
38220;SDS011;24023;51.280;7.148;2023-05-16T15:30:10;3.5;;;0.8;;
38220;SDS011;24023;51.280;7.148;2023-05-16T15:35:07;3.5;;;0.8;;
38220;SDS011;24023;51.280;7.148;2023-05-16T15:40:09;5.4;;;1.0;;
38220;SDS011;24023;51.280;7.148;2023-05-16T15:45:09;5.4;;;1.0;;
38220;SDS011;24023;51.280;7.148;2023-05-16T15:50:08;3.2;;;0.9;;
38220;SDS011;24023;51.280;7.148;2023-05-16T15:55:07;3.2;;;0.9;;
38220;SDS011;24023;51.280;7.148;2023-05-16T16:00:10;3.2;;;0.9;;
38220;SDS011;24023;51.280;7.148;2023-05-16T16:05:07;3.2;;;0.9;;
38220;SDS011;24023;51.280;7.148;2023-05-16T16:10:09;3.2;;;0.9;;
38220;SDS011;24023;51.280;7.148;2023-05-16T16:15:08;3.4;;;1.0;;
38220;SDS011;24023;51.280;7.148;2023-05-16T16:20:08;2.8;;;0.9;;
38220;SDS011;24023;51.280;7.148;2023-05-16T16:25:06;2.8;;;0.9;;
38220;SDS011;24023;51.280;7.148;2023-05-16T16:30:09;4.2;;;1.1;;
38220;SDS011;24023;51.280;7.148;2023-05-16T16:35:06;4.2;;;1.1;;
38220;SDS011;24023;51.280;7.148;2023-05-16T16:40:07;4.2;;;1.1;;
38220;SDS011;24023;51.280;7.148;2023-05-16T16:45:10;2.9;;;1.0;;
38220;SDS011;24023;51.280;7.148;2023-05-16T16:50:07;2.9;;;1.0;;
38220;SDS011;24023;51.280;7.148;2023-05-16T16:55:07;3.9;;;1.2;;
38220;SDS011;24023;51.280;7.148;2023-05-16T17:00:11;3.9;;;1.2;;
38220;SDS011;24023;51.280;7.148;2023-05-16T17:05:06;4.6;;;1.3;;
38220;SDS011;24023;51.280;7.148;2023-05-16T17:10:08;3.4;;;1.3;;
38220;SDS011;24023;51.280;7.148;2023-05-16T17:15:08;3.4;;;1.3;;
38220;SDS011;24023;51.280;7.148;2023-05-16T17:20:08;3.4;;;1.3;;
38220;SDS011;24023;51.280;7.148;2023-05-16T17:25:07;3.4;;;1.3;;
38220;SDS011;24023;51.280;7.148;2023-05-16T17:30:10;3.7;;;1.3;;
38220;SDS011;24023;51.280;7.148;2023-05-16T17:35:06;3.7;;;1.3;;
38220;SDS011;24023;51.280;7.148;2023-05-16T17:40:10;3.7;;;1.3;;
38220;SDS011;24023;51.280;7.148;2023-05-16T17:45:10;3.9;;;1.4;;
38220;SDS011;24023;51.280;7.148;2023-05-16T17:50:08;3.9;;;1.4;;
38220;SDS011;24023;51.280;7.148;2023-05-16T17:55:08;4.3;;;1.6;;
38220;SDS011;24023;51.280;7.148;2023-05-16T18:00:11;4.3;;;1.6;;
38220;SDS011;24023;51.280;7.148;2023-05-16T18:05:06;4.3;;;1.6;;
38220;SDS011;24023;51.280;7.148;2023-05-16T18:10:08;4.9;;;1.3;;
38220;SDS011;24023;51.280;7.148;2023-05-16T18:15:08;4.9;;;1.3;;
38220;SDS011;24023;51.280;7.148;2023-05-16T18:20:09;2.6;;;1.2;;
38220;SDS011;24023;51.280;7.148;2023-05-16T18:25:06;2.6;;;1.2;;
38220;SDS011;24023;51.280;7.148;2023-05-16T18:30:10;3.8;;;1.5;;
38220;SDS011;24023;51.280;7.148;2023-05-16T18:35:07;3.8;;;1.5;;
38220;SDS011;24023;51.280;7.148;2023-05-16T18:40:08;5.6;;;1.4;;
38220;SDS011;24023;51.280;7.148;2023-05-16T18:45:10;5.6;;;1.4;;
38220;SDS011;24023;51.280;7.148;2023-05-16T18:50:08;3.5;;;1.2;;
38220;SDS011;24023;51.280;7.148;2023-05-16T18:55:06;3.5;;;1.2;;
38220;SDS011;24023;51.280;7.148;2023-05-16T19:00:12;5.4;;;1.6;;
38220;SDS011;24023;51.280;7.148;2023-05-16T19:05:06;5.4;;;1.6;;
38220;SDS011;24023;51.280;7.148;2023-05-16T19:10:07;4.0;;;1.3;;
38220;SDS011;24023;51.280;7.148;2023-05-16T19:15:08;4.0;;;1.3;;
38220;SDS011;24023;51.280;7.148;2023-05-16T19:20:08;4.0;;;1.3;;
38220;SDS011;24023;51.280;7.148;2023-05-16T19:25:07;3.0;;;1.2;;
38220;SDS011;24023;51.280;7.148;2023-05-16T19:30:09;3.0;;;1.2;;
38220;SDS011;24023;51.280;7.148;2023-05-16T19:35:07;2.8;;;1.0;;
38220;SDS011;24023;51.280;7.148;2023-05-16T19:40:07;2.8;;;1.0;;
38220;SDS011;24023;51.280;7.148;2023-05-16T19:45:09;2.8;;;1.0;;
38220;SDS011;24023;51.280;7.148;2023-05-16T19:50:08;2.8;;;1.1;;
38220;SDS011;24023;51.280;7.148;2023-05-16T19:55:07;2.8;;;1.1;;
38220;SDS011;24023;51.280;7.148;2023-05-16T20:00:11;3.5;;;1.1;;
38220;SDS011;24023;51.280;7.148;2023-05-16T20:05:07;3.5;;;1.1;;
38220;SDS011;24023;51.280;7.148;2023-05-16T20:10:08;5.4;;;1.3;;
38220;SDS011;24023;51.280;7.148;2023-05-16T20:15:10;5.4;;;1.3;;
38220;SDS011;24023;51.280;7.148;2023-05-16T20:20:08;3.7;;;1.1;;
38220;SDS011;24023;51.280;7.148;2023-05-16T20:25:07;3.7;;;1.1;;
38220;SDS011;24023;51.280;7.148;2023-05-16T20:30:09;3.0;;;1.0;;
38220;SDS011;24023;51.280;7.148;2023-05-16T20:35:09;3.0;;;1.0;;
38220;SDS011;24023;51.280;7.148;2023-05-16T20:40:08;3.0;;;1.0;;
38220;SDS011;24023;51.280;7.148;2023-05-16T20:45:10;3.9;;;1.4;;
38220;SDS011;24023;51.280;7.148;2023-05-16T20:50:08;3.9;;;1.4;;
38220;SDS011;24023;51.280;7.148;2023-05-16T20:55:06;4.8;;;1.4;;
38220;SDS011;24023;51.280;7.148;2023-05-16T21:00:11;4.6;;;1.3;;
38220;SDS011;24023;51.280;7.148;2023-05-16T21:05:06;4.6;;;1.3;;
38220;SDS011;24023;51.280;7.148;2023-05-16T21:10:08;4.6;;;1.3;;
38220;SDS011;24023;51.280;7.148;2023-05-16T21:15:07;3.9;;;1.2;;
38220;SDS011;24023;51.280;7.148;2023-05-16T21:20:08;3.9;;;1.2;;
38220;SDS011;24023;51.280;7.148;2023-05-16T21:25:06;3.1;;;1.2;;
38220;SDS011;24023;51.280;7.148;2023-05-16T21:30:09;3.7;;;1.2;;
38220;SDS011;24023;51.280;7.148;2023-05-16T21:35:08;3.7;;;1.2;;
38220;SDS011;24023;51.280;7.148;2023-05-16T21:40:08;3.7;;;1.2;;
38220;SDS011;24023;51.280;7.148;2023-05-16T21:45:11;4.3;;;1.2;;
38220;SDS011;24023;51.280;7.148;2023-05-16T21:50:08;4.3;;;1.2;;
38220;SDS011;24023;51.280;7.148;2023-05-16T21:55:06;4.3;;;1.2;;
38220;SDS011;24023;51.280;7.148;2023-05-16T22:00:18;4.7;;;1.1;;
38220;SDS011;24023;51.280;7.148;2023-05-16T22:05:08;4.7;;;1.1;;
38220;SDS011;24023;51.280;7.148;2023-05-16T22:10:10;4.7;;;1.1;;
38220;SDS011;24023;51.280;7.148;2023-05-16T22:15:07;4.7;;;1.1;;
38220;SDS011;24023;51.280;7.148;2023-05-16T22:20:08;3.6;;;1.1;;
38220;SDS011;24023;51.280;7.148;2023-05-16T22:25:06;3.6;;;1.1;;
38220;SDS011;24023;51.280;7.148;2023-05-16T22:30:09;3.3;;;1.0;;
38220;SDS011;24023;51.280;7.148;2023-05-16T22:35:06;3.3;;;1.0;;
38220;SDS011;24023;51.280;7.148;2023-05-16T22:40:08;3.6;;;1.2;;
38220;SDS011;24023;51.280;7.148;2023-05-16T22:45:10;3.6;;;1.2;;
38220;SDS011;24023;51.280;7.148;2023-05-16T22:50:07;3.6;;;1.2;;
38220;SDS011;24023;51.280;7.148;2023-05-16T22:55:07;3.4;;;1.1;;
38220;SDS011;24023;51.280;7.148;2023-05-16T23:00:10;3.4;;;1.1;;
38220;SDS011;24023;51.280;7.148;2023-05-16T23:05:06;2.9;;;1.0;;
38220;SDS011;24023;51.280;7.148;2023-05-16T23:10:08;2.9;;;1.0;;
38220;SDS011;24023;51.280;7.148;2023-05-16T23:15:09;3.3;;;1.1;;
38220;SDS011;24023;51.280;7.148;2023-05-16T23:20:07;3.3;;;1.1;;
38220;SDS011;24023;51.280;7.148;2023-05-16T23:25:06;3.3;;;1.1;;
38220;SDS011;24023;51.280;7.148;2023-05-16T23:30:10;2.4;;;1.2;;
38220;SDS011;24023;51.280;7.148;2023-05-16T23:35:06;2.4;;;1.2;;
38220;SDS011;24023;51.280;7.148;2023-05-16T23:40:08;3.1;;;0.9;;
38220;SDS011;24023;51.280;7.148;2023-05-16T23:45:09;3.1;;;0.9;;
38220;SDS011;24023;51.280;7.148;2023-05-16T23:50:08;3.1;;;0.9;;
38220;SDS011;24023;51.280;7.148;2023-05-16T23:55:07;3.5;;;1.2;;
